sensor_id;sensor_type;location;lat;lon;timestamp;pressure;altitude;pressure_sealevel;temperature;humidity
65897;BME280;52677;50.898;10.854;2023-07-24T00:00:29;97713.25;;;18.06;100.00
65897;BME280;52677;50.898;10.854;2023-07-24T00:02:29;97718.41;;;18.07;100.00
65897;BME280;52677;50.898;10.854;2023-07-24T00:04:31;97702.06;;;18.06;100.00
65897;BME280;52677;50.898;10.854;2023-07-24T00:06:31;97706.50;;;18.03;100.00
65897;BME280;52677;50.898;10.854;2023-07-24T00:08:31;97706.50;;;18.03;100.00
65897;BME280;52677;50.898;10.854;2023-07-24T00:10:32;97704.94;;;18.02;100.00
65897;BME280;52677;50.898;10.854;2023-07-24T00:12:32;97688.94;;;18.03;100.00
65897;BME280;52677;50.898;10.854;2023-07-24T00:14:33;97692.19;;;18.01;100.00
65897;BME280;52677;50.898;10.854;2023-07-24T00:28:20;97688.25;;;17.73;100.00
65897;BME280;52677;50.898;10.854;2023-07-24T00:30:20;97673.94;;;17.71;100.00
65897;BME280;52677;50.898;10.854;2023-07-24T00:32:20;97663.13;;;17.69;100.00
65897;BME280;52677;50.898;10.854;2023-07-24T00:34:21;97660.59;;;17.75;100.00
65897;BME280;52677;50.898;10.854;2023-07-24T00:36:21;97666.19;;;17.75;100.00
65897;BME280;52677;50.898;10.854;2023-07-24T00:38:21;97672.13;;;17.77;100.00
65897;BME280;52677;50.898;10.854;2023-07-24T00:40:22;97670.88;;;17.78;100.00
65897;BME280;52677;50.898;10.854;2023-07-24T00:42:22;97678.50;;;17.78;100.00
65897;BME280;52677;50.898;10.854;2023-07-24T00:44:22;97685.78;;;17.75;100.00
65897;BME280;52677;50.898;10.854;2023-07-24T00:46:24;97681.75;;;17.76;100.00
65897;BME280;52677;50.898;10.854;2023-07-24T00:48:24;97678.63;;;17.74;100.00
65897;BME280;52677;50.898;10.854;2023-07-24T00:50:25;97667.44;;;17.74;100.00
65897;BME280;52677;50.898;10.854;2023-07-24T00:52:25;97671.00;;;17.75;100.00
65897;BME280;52677;50.898;10.854;2023-07-24T00:54:26;97671.13;;;17.71;100.00
65897;BME280;52677;50.898;10.854;2023-07-24T00:56:30;97664.81;;;17.67;100.00
65897;BME280;52677;50.898;10.854;2023-07-24T00:58:33;97658.09;;;17.64;100.00
65897;BME280;52677;50.898;10.854;2023-07-24T01:00:33;97662.91;;;17.64;100.00
65897;BME280;52677;50.898;10.854;2023-07-24T01:02:34;97671.06;;;17.58;100.00
65897;BME280;52677;50.898;10.854;2023-07-24T01:04:35;97672.38;;;17.54;100.00
65897;BME280;52677;50.898;10.854;2023-07-24T01:06:35;97666.78;;;17.54;100.00
65897;BME280;52677;50.898;10.854;2023-07-24T01:08:36;97669.94;;;17.56;100.00
65897;BME280;52677;50.898;10.854;2023-07-24T01:10:36;97667.69;;;17.51;100.00
65897;BME280;52677;50.898;10.854;2023-07-24T01:14:46;97670.16;;;17.49;100.00
65897;BME280;52677;50.898;10.854;2023-07-24T01:16:47;97667.81;;;17.47;100.00
65897;BME280;52677;50.898;10.854;2023-07-24T01:18:50;97666.78;;;17.41;100.00
65897;BME280;52677;50.898;10.854;2023-07-24T01:20:55;97674.13;;;17.35;100.00
65897;BME280;52677;50.898;10.854;2023-07-24T01:25:32;97670.22;;;17.32;100.00
65897;BME280;52677;50.898;10.854;2023-07-24T01:27:43;97692.13;;;17.34;100.00
65897;BME280;52677;50.898;10.854;2023-07-24T01:29:44;97678.16;;;17.34;100.00
65897;BME280;52677;50.898;10.854;2023-07-24T01:31:44;97682.63;;;17.31;100.00
65897;BME280;52677;50.898;10.854;2023-07-24T01:33:45;97675.56;;;17.27;100.00
65897;BME280;52677;50.898;10.854;2023-07-24T01:35:49;97670.84;;;17.24;100.00
65897;BME280;52677;50.898;10.854;2023-07-24T01:37:51;97670.84;;;17.24;100.00
65897;BME280;52677;50.898;10.854;2023-07-24T01:39:52;97673.88;;;17.29;100.00
65897;BME280;52677;50.898;10.854;2023-07-24T01:41:53;97673.34;;;17.34;100.00
65897;BME280;52677;50.898;10.854;2023-07-24T01:43:53;97661.63;;;17.39;100.00
65897;BME280;52677;50.898;10.854;2023-07-24T01:45:55;97665.41;;;17.46;100.00
65897;BME280;52677;50.898;10.854;2023-07-24T01:47:55;97662.53;;;17.49;100.00
65897;BME280;52677;50.898;10.854;2023-07-24T01:49:56;97670.47;;;17.51;100.00
65897;BME280;52677;50.898;10.854;2023-07-24T01:51:56;97669.38;;;17.48;100.00
65897;BME280;52677;50.898;10.854;2023-07-24T01:53:57;97671.38;;;17.48;100.00
65897;BME280;52677;50.898;10.854;2023-07-24T01:55:58;97662.28;;;17.44;100.00
65897;BME280;52677;50.898;10.854;2023-07-24T01:57:58;97666.78;;;17.41;100.00
65897;BME280;52677;50.898;10.854;2023-07-24T01:59:59;97658.03;;;17.39;100.00
65897;BME280;52677;50.898;10.854;2023-07-24T02:01:59;97654.47;;;17.38;100.00
65897;BME280;52677;50.898;10.854;2023-07-24T02:03:59;97650.63;;;17.32;100.00
65897;BME280;52677;50.898;10.854;2023-07-24T02:06:00;97641.56;;;17.28;100.00
65897;BME280;52677;50.898;10.854;2023-07-24T02:08:00;97649.59;;;17.26;100.00
65897;BME280;52677;50.898;10.854;2023-07-24T02:10:01;97647.72;;;17.23;100.00
65897;BME280;52677;50.898;10.854;2023-07-24T02:12:01;97645.25;;;17.25;100.00
65897;BME280;52677;50.898;10.854;2023-07-24T02:14:02;97644.81;;;17.27;100.00
65897;BME280;52677;50.898;10.854;2023-07-24T02:16:02;97639.78;;;17.34;100.00
65897;BME280;52677;50.898;10.854;2023-07-24T02:18:04;97641.16;;;17.42;100.00
65897;BME280;52677;50.898;10.854;2023-07-24T02:20:05;97639.28;;;17.52;100.00
65897;BME280;52677;50.898;10.854;2023-07-24T02:22:05;97637.03;;;17.60;100.00
65897;BME280;52677;50.898;10.854;2023-07-24T02:24:05;97635.72;;;17.64;100.00
65897;BME280;52677;50.898;10.854;2023-07-24T02:26:06;97632.81;;;17.68;99.47
65897;BME280;52677;50.898;10.854;2023-07-24T02:28:06;97634.19;;;17.76;98.55
65897;BME280;52677;50.898;10.854;2023-07-24T02:30:06;97624.78;;;17.83;98.30
65897;BME280;52677;50.898;10.854;2023-07-24T02:32:07;97625.34;;;17.90;97.91
65897;BME280;52677;50.898;10.854;2023-07-24T02:34:07;97625.13;;;17.98;97.35
65897;BME280;52677;50.898;10.854;2023-07-24T02:36:08;97620.88;;;18.06;96.77
65897;BME280;52677;50.898;10.854;2023-07-24T02:38:08;97628.28;;;18.12;96.40
65897;BME280;52677;50.898;10.854;2023-07-24T02:40:09;97622.88;;;18.18;95.90
65897;BME280;52677;50.898;10.854;2023-07-24T02:42:10;97623.09;;;18.23;95.29
65897;BME280;52677;50.898;10.854;2023-07-24T02:44:10;97617.38;;;18.27;94.75
65897;BME280;52677;50.898;10.854;2023-07-24T02:46:10;97619.28;;;18.30;94.11
65897;BME280;52677;50.898;10.854;2023-07-24T02:48:11;97612.78;;;18.33;93.97
65897;BME280;52677;50.898;10.854;2023-07-24T02:50:11;97611.09;;;18.36;93.55
65897;BME280;52677;50.898;10.854;2023-07-24T02:52:11;97616.81;;;18.32;93.54
65897;BME280;52677;50.898;10.854;2023-07-24T02:54:11;97610.31;;;18.35;93.45
65897;BME280;52677;50.898;10.854;2023-07-24T02:56:12;97607.50;;;18.35;93.20
65897;BME280;52677;50.898;10.854;2023-07-24T02:58:13;97609.66;;;18.31;93.60
65897;BME280;52677;50.898;10.854;2023-07-24T03:00:14;97614.94;;;18.29;93.86
65897;BME280;52677;50.898;10.854;2023-07-24T03:02:14;97609.44;;;18.25;94.04
65897;BME280;52677;50.898;10.854;2023-07-24T03:04:14;97608.31;;;18.23;93.48
65897;BME280;52677;50.898;10.854;2023-07-24T03:06:15;97619.19;;;18.21;93.55
65897;BME280;52677;50.898;10.854;2023-07-24T03:08:15;97622.53;;;18.16;93.89
65897;BME280;52677;50.898;10.854;2023-07-24T03:10:16;97616.25;;;18.12;94.27
65897;BME280;52677;50.898;10.854;2023-07-24T03:12:16;97614.81;;;18.07;94.24
65897;BME280;52677;50.898;10.854;2023-07-24T03:14:16;97605.41;;;18.01;94.18
65897;BME280;52677;50.898;10.854;2023-07-24T03:16:17;97611.34;;;18.03;94.30
65897;BME280;52677;50.898;10.854;2023-07-24T03:18:19;97609.00;;;18.02;94.53
65897;BME280;52677;50.898;10.854;2023-07-24T03:20:20;97602.06;;;18.06;94.33
65897;BME280;52677;50.898;10.854;2023-07-24T03:22:21;97598.38;;;18.09;94.10
65897;BME280;52677;50.898;10.854;2023-07-24T03:24:21;97598.03;;;18.07;94.08
65897;BME280;52677;50.898;10.854;2023-07-24T03:26:22;97602.41;;;18.08;94.35
65897;BME280;52677;50.898;10.854;2023-07-24T03:28:22;97608.78;;;18.09;94.04
65897;BME280;52677;50.898;10.854;2023-07-24T03:30:22;97603.19;;;18.09;94.17
65897;BME280;52677;50.898;10.854;2023-07-24T03:32:23;97608.78;;;18.09;94.16
65897;BME280;52677;50.898;10.854;2023-07-24T03:34:23;97602.84;;;18.07;94.15
65897;BME280;52677;50.898;10.854;2023-07-24T03:36:23;97598.03;;;18.07;94.33
65897;BME280;52677;50.898;10.854;2023-07-24T03:38:23;97604.41;;;18.08;94.17
65897;BME280;52677;50.898;10.854;2023-07-24T03:40:24;97603.63;;;18.07;94.20
65897;BME280;52677;50.898;10.854;2023-07-24T03:42:29;97598.94;;;18.04;94.43
65897;BME280;52677;50.898;10.854;2023-07-24T03:44:30;97597.81;;;18.02;94.54
65897;BME280;52677;50.898;10.854;2023-07-24T03:46:32;97603.06;;;18.00;94.24
65897;BME280;52677;50.898;10.854;2023-07-24T03:48:32;97589.88;;;18.00;94.76
65897;BME280;52677;50.898;10.854;2023-07-24T03:50:32;97592.66;;;18.00;94.46
65897;BME280;52677;50.898;10.854;2023-07-24T03:52:33;97585.06;;;18.01;95.06
65897;BME280;52677;50.898;10.854;2023-07-24T03:54:33;97597.25;;;18.07;94.70
65897;BME280;52677;50.898;10.854;2023-07-24T03:56:33;97594.31;;;18.10;94.62
65897;BME280;52677;50.898;10.854;2023-07-24T03:58:33;97589.19;;;18.09;94.35
65897;BME280;52677;50.898;10.854;2023-07-24T04:00:34;97575.97;;;18.09;94.27
65897;BME280;52677;50.898;10.854;2023-07-24T04:02:34;97569.81;;;18.14;94.19
65897;BME280;52677;50.898;10.854;2023-07-24T04:04:35;97567.47;;;18.13;93.61
65897;BME280;52677;50.898;10.854;2023-07-24T04:06:35;97565.56;;;18.10;93.40
65897;BME280;52677;50.898;10.854;2023-07-24T04:08:35;97567.25;;;18.07;93.53
65897;BME280;52677;50.898;10.854;2023-07-24T04:10:36;97562.09;;;18.06;93.87
65897;BME280;52677;50.898;10.854;2023-07-24T04:12:36;97552.56;;;18.03;93.94
65897;BME280;52677;50.898;10.854;2023-07-24T04:14:36;97555.50;;;18.00;94.27
65897;BME280;52677;50.898;10.854;2023-07-24T04:16:37;97559.63;;;17.95;94.76
65897;BME280;52677;50.898;10.854;2023-07-24T04:18:37;97555.72;;;17.92;94.64
65897;BME280;52677;50.898;10.854;2023-07-24T04:20:37;97547.00;;;17.90;95.04
65897;BME280;52677;50.898;10.854;2023-07-24T04:22:38;97546.22;;;17.90;95.20
65897;BME280;52677;50.898;10.854;2023-07-24T04:24:38;97541.09;;;17.88;94.96
65897;BME280;52677;50.898;10.854;2023-07-24T04:26:38;97547.91;;;17.87;95.04
65897;BME280;52677;50.898;10.854;2023-07-24T04:28:39;97556.63;;;17.89;95.25
65897;BME280;52677;50.898;10.854;2023-07-24T04:30:40;97567.38;;;17.91;96.49
65897;BME280;52677;50.898;10.854;2023-07-24T04:32:40;97569.41;;;17.90;96.52
65897;BME280;52677;50.898;10.854;2023-07-24T04:34:40;97569.06;;;17.88;96.28
65897;BME280;52677;50.898;10.854;2023-07-24T04:36:40;97584.28;;;17.87;96.10
65897;BME280;52677;50.898;10.854;2023-07-24T04:38:41;97580.25;;;17.88;95.61
65897;BME280;52677;50.898;10.854;2023-07-24T04:40:43;97584.28;;;17.87;96.87
65897;BME280;52677;50.898;10.854;2023-07-24T04:42:45;97579.56;;;17.84;96.94
65897;BME280;52677;50.898;10.854;2023-07-24T04:44:45;97582.50;;;17.81;96.80
65897;BME280;52677;50.898;10.854;2023-07-24T04:46:45;97580.47;;;17.81;96.82
65897;BME280;52677;50.898;10.854;2023-07-24T04:48:46;97574.56;;;17.79;97.00
65897;BME280;52677;50.898;10.854;2023-07-24T04:50:46;97564.25;;;17.76;96.98
65897;BME280;52677;50.898;10.854;2023-07-24T04:52:46;97567.72;;;17.80;98.02
65897;BME280;52677;50.898;10.854;2023-07-24T04:54:47;97569.16;;;17.85;97.78
65897;BME280;52677;50.898;10.854;2023-07-24T04:56:47;97564.72;;;17.87;97.31
65897;BME280;52677;50.898;10.854;2023-07-24T04:58:47;97555.63;;;17.96;96.98
65897;BME280;52677;50.898;10.854;2023-07-24T05:00:48;97552.47;;;18.07;95.59
65897;BME280;52677;50.898;10.854;2023-07-24T05:02:48;97555.44;;;18.25;94.25
65897;BME280;52677;50.898;10.854;2023-07-24T05:04:48;97555.44;;;18.38;93.47
65897;BME280;52677;50.898;10.854;2023-07-24T05:06:48;97538.34;;;18.45;92.28
65897;BME280;52677;50.898;10.854;2023-07-24T05:08:54;97526.88;;;18.65;91.66
65897;BME280;52677;50.898;10.854;2023-07-24T05:10:58;97529.31;;;18.75;91.08
65897;BME280;52677;50.898;10.854;2023-07-24T05:12:58;97536.09;;;18.87;90.54
65897;BME280;52677;50.898;10.854;2023-07-24T05:15:01;97541.63;;;19.00;90.55
65897;BME280;52677;50.898;10.854;2023-07-24T05:17:01;97538.75;;;19.13;88.78
65897;BME280;52677;50.898;10.854;2023-07-24T05:19:01;97538.34;;;19.23;88.28
65897;BME280;52677;50.898;10.854;2023-07-24T05:21:02;97530.75;;;19.33;88.29
65897;BME280;52677;50.898;10.854;2023-07-24T05:23:02;97526.72;;;19.34;87.38
65897;BME280;52677;50.898;10.854;2023-07-24T05:25:03;97536.84;;;19.31;87.68
65897;BME280;52677;50.898;10.854;2023-07-24T05:27:04;97523.13;;;19.33;87.55
65897;BME280;52677;50.898;10.854;2023-07-24T05:29:05;97517.56;;;19.43;87.38
65897;BME280;52677;50.898;10.854;2023-07-24T05:31:05;97522.09;;;19.49;86.98
65897;BME280;52677;50.898;10.854;2023-07-24T05:33:06;97522.63;;;19.57;86.75
65897;BME280;52677;50.898;10.854;2023-07-24T05:35:06;97524.38;;;19.63;86.09
65897;BME280;52677;50.898;10.854;2023-07-24T05:37:07;97518.50;;;19.71;86.58
65897;BME280;52677;50.898;10.854;2023-07-24T05:39:07;97512.41;;;19.72;86.05
65897;BME280;52677;50.898;10.854;2023-07-24T05:41:07;97514.78;;;19.83;86.13
65897;BME280;52677;50.898;10.854;2023-07-24T05:43:08;97507.41;;;19.76;85.59
65897;BME280;52677;50.898;10.854;2023-07-24T05:45:09;97511.94;;;19.74;86.09
65897;BME280;52677;50.898;10.854;2023-07-24T05:47:10;97510.22;;;19.76;85.51
65897;BME280;52677;50.898;10.854;2023-07-24T05:49:11;97499.03;;;19.85;85.14
65897;BME280;52677;50.898;10.854;2023-07-24T05:51:11;97501.41;;;19.96;85.48
65897;BME280;52677;50.898;10.854;2023-07-24T05:53:11;97495.16;;;20.01;85.12
65897;BME280;52677;50.898;10.854;2023-07-24T05:55:12;97502.34;;;20.02;84.24
65897;BME280;52677;50.898;10.854;2023-07-24T05:57:12;97498.78;;;20.11;85.08
65897;BME280;52677;50.898;10.854;2023-07-24T05:59:12;97503.16;;;20.12;84.24
65897;BME280;52677;50.898;10.854;2023-07-24T06:01:13;97515.97;;;20.22;85.00
65897;BME280;52677;50.898;10.854;2023-07-24T06:03:14;97505.50;;;20.23;83.18
65897;BME280;52677;50.898;10.854;2023-07-24T06:05:14;97503.31;;;20.17;83.50
65897;BME280;52677;50.898;10.854;2023-07-24T06:07:14;97502.22;;;20.15;85.23
65897;BME280;52677;50.898;10.854;2023-07-24T06:09:15;97506.41;;;20.10;84.01
65897;BME280;52677;50.898;10.854;2023-07-24T06:11:15;97497.69;;;20.17;85.34
65897;BME280;52677;50.898;10.854;2023-07-24T06:13:16;97506.13;;;20.27;84.68
65897;BME280;52677;50.898;10.854;2023-07-24T06:15:16;97504.13;;;20.36;83.49
65897;BME280;52677;50.898;10.854;2023-07-24T06:17:17;97502.59;;;20.44;82.67
65897;BME280;52677;50.898;10.854;2023-07-24T06:19:17;97503.06;;;20.52;83.03
65897;BME280;52677;50.898;10.854;2023-07-24T06:21:17;97522.88;;;20.58;82.76
65897;BME280;52677;50.898;10.854;2023-07-24T06:23:18;97527.41;;;20.64;82.47
65897;BME280;52677;50.898;10.854;2023-07-24T06:25:18;97515.22;;;20.67;82.55
65897;BME280;52677;50.898;10.854;2023-07-24T06:27:18;97512.25;;;20.80;82.97
65897;BME280;52677;50.898;10.854;2023-07-24T06:29:19;97506.16;;;20.91;82.10
65897;BME280;52677;50.898;10.854;2023-07-24T06:31:19;97497.53;;;21.03;82.10
65897;BME280;52677;50.898;10.854;2023-07-24T06:33:19;97491.59;;;21.11;80.56
65897;BME280;52677;50.898;10.854;2023-07-24T06:35:21;97498.56;;;21.24;79.98
65897;BME280;52677;50.898;10.854;2023-07-24T06:37:21;97497.44;;;21.40;79.80
65897;BME280;52677;50.898;10.854;2023-07-24T06:39:22;97499.75;;;21.51;80.01
65897;BME280;52677;50.898;10.854;2023-07-24T06:41:22;97490.31;;;21.63;78.01
65897;BME280;52677;50.898;10.854;2023-07-24T06:43:23;97488.25;;;21.73;78.31
65897;BME280;52677;50.898;10.854;2023-07-24T06:45:23;97477.72;;;21.82;76.25
65897;BME280;52677;50.898;10.854;2023-07-24T06:47:24;97470.66;;;21.87;75.97
65897;BME280;52677;50.898;10.854;2023-07-24T06:49:24;97477.66;;;21.92;76.60
65897;BME280;52677;50.898;10.854;2023-07-24T06:51:25;97484.03;;;22.01;76.10
65897;BME280;52677;50.898;10.854;2023-07-24T06:53:25;97480.41;;;22.10;74.49
65897;BME280;52677;50.898;10.854;2023-07-24T06:55:25;97475.66;;;22.16;74.71
65897;BME280;52677;50.898;10.854;2023-07-24T06:57:26;97481.41;;;22.22;73.58
65897;BME280;52677;50.898;10.854;2023-07-24T06:59:26;97476.34;;;22.26;73.41
65897;BME280;52677;50.898;10.854;2023-07-24T07:01:26;97480.06;;;22.32;72.96
65897;BME280;52677;50.898;10.854;2023-07-24T07:03:27;97488.38;;;22.35;73.54
65897;BME280;52677;50.898;10.854;2023-07-24T07:05:27;97491.47;;;22.37;72.77
65897;BME280;52677;50.898;10.854;2023-07-24T07:07:27;97492.44;;;22.34;73.55
65897;BME280;52677;50.898;10.854;2023-07-24T07:09:28;97494.28;;;22.37;73.28
65897;BME280;52677;50.898;10.854;2023-07-24T07:11:28;97494.09;;;22.41;72.03
65897;BME280;52677;50.898;10.854;2023-07-24T07:13:29;97490.50;;;22.40;72.38
65897;BME280;52677;50.898;10.854;2023-07-24T07:15:29;97487.19;;;22.42;72.47
65897;BME280;52677;50.898;10.854;2023-07-24T07:17:29;97485.56;;;22.50;71.78
65897;BME280;52677;50.898;10.854;2023-07-24T07:19:31;97489.47;;;22.53;72.51
65897;BME280;52677;50.898;10.854;2023-07-24T07:21:31;97482.09;;;22.55;71.67
65897;BME280;52677;50.898;10.854;2023-07-24T07:23:31;97478.19;;;22.53;72.21
65897;BME280;52677;50.898;10.854;2023-07-24T07:25:32;97473.34;;;22.53;71.79
65897;BME280;52677;50.898;10.854;2023-07-24T07:27:32;97468.78;;;22.56;71.99
65897;BME280;52677;50.898;10.854;2023-07-24T07:29:32;97476.72;;;22.57;71.10
65897;BME280;52677;50.898;10.854;2023-07-24T07:31:32;97470.59;;;22.59;71.57
65897;BME280;52677;50.898;10.854;2023-07-24T07:33:33;97474.31;;;22.65;71.89
65897;BME280;52677;50.898;10.854;2023-07-24T07:35:35;97472.41;;;22.71;72.32
65897;BME280;52677;50.898;10.854;2023-07-24T07:37:35;97479.88;;;22.74;71.12
65897;BME280;52677;50.898;10.854;2023-07-24T07:39:35;97470.75;;;22.79;69.55
65897;BME280;52677;50.898;10.854;2023-07-24T07:41:36;97466.94;;;22.82;70.78
65897;BME280;52677;50.898;10.854;2023-07-24T07:43:36;97468.50;;;22.83;71.40
65897;BME280;52677;50.898;10.854;2023-07-24T07:45:37;97472.25;;;22.89;70.87
65897;BME280;52677;50.898;10.854;2023-07-24T07:47:38;97472.44;;;22.86;70.25
65897;BME280;52677;50.898;10.854;2023-07-24T07:49:38;97465.88;;;22.80;70.77
65897;BME280;52677;50.898;10.854;2023-07-24T07:51:40;97460.91;;;22.75;69.94
65897;BME280;52677;50.898;10.854;2023-07-24T07:53:40;97460.44;;;22.76;70.64
65897;BME280;52677;50.898;10.854;2023-07-24T07:55:40;97458.88;;;22.75;71.15
65897;BME280;52677;50.898;10.854;2023-07-24T07:57:41;97462.28;;;22.79;69.60
65897;BME280;52677;50.898;10.854;2023-07-24T07:59:41;97458.09;;;22.75;69.39
65897;BME280;52677;50.898;10.854;2023-07-24T08:01:42;97451.00;;;22.79;70.36
65897;BME280;52677;50.898;10.854;2023-07-24T08:03:42;97458.63;;;22.88;70.70
65897;BME280;52677;50.898;10.854;2023-07-24T08:05:43;97451.22;;;22.90;70.28
65897;BME280;52677;50.898;10.854;2023-07-24T08:07:43;97452.41;;;22.98;70.63
65897;BME280;52677;50.898;10.854;2023-07-24T08:09:45;97449.41;;;23.02;70.39
65897;BME280;52677;50.898;10.854;2023-07-24T08:11:45;97455.13;;;23.08;70.58
65897;BME280;52677;50.898;10.854;2023-07-24T08:13:46;97452.91;;;23.12;70.72
65897;BME280;52677;50.898;10.854;2023-07-24T08:15:46;97452.19;;;23.17;70.68
65897;BME280;52677;50.898;10.854;2023-07-24T08:17:46;97443.53;;;23.20;71.39
65897;BME280;52677;50.898;10.854;2023-07-24T08:19:47;97451.13;;;23.29;70.59
65897;BME280;52677;50.898;10.854;2023-07-24T08:21:47;97448.78;;;23.27;70.45
65897;BME280;52677;50.898;10.854;2023-07-24T08:23:47;97446.38;;;23.20;70.72
65897;BME280;52677;50.898;10.854;2023-07-24T08:25:54;97449.69;;;23.19;70.60
65897;BME280;52677;50.898;10.854;2023-07-24T08:27:54;97443.81;;;23.22;70.37
65897;BME280;52677;50.898;10.854;2023-07-24T08:29:55;97439.16;;;23.34;69.72
65897;BME280;52677;50.898;10.854;2023-07-24T08:31:55;97444.75;;;23.49;68.47
65897;BME280;52677;50.898;10.854;2023-07-24T08:33:56;97436.28;;;23.64;68.29
65897;BME280;52677;50.898;10.854;2023-07-24T08:36:07;97430.94;;;23.86;68.09
65897;BME280;52677;50.898;10.854;2023-07-24T08:38:07;97435.47;;;23.98;67.21
65897;BME280;52677;50.898;10.854;2023-07-24T08:40:11;97438.44;;;23.89;67.26
65897;BME280;52677;50.898;10.854;2023-07-24T08:42:12;97438.84;;;23.82;67.26
65897;BME280;52677;50.898;10.854;2023-07-24T08:44:12;97431.09;;;23.77;66.71
65897;BME280;52677;50.898;10.854;2023-07-24T08:46:13;97433.81;;;23.71;67.68
65897;BME280;52677;50.898;10.854;2023-07-24T08:48:14;97436.09;;;23.67;67.70
65897;BME280;52677;50.898;10.854;2023-07-24T08:50:16;97447.94;;;23.71;66.31
65897;BME280;52677;50.898;10.854;2023-07-24T08:52:17;97454.72;;;23.79;67.19
65897;BME280;52677;50.898;10.854;2023-07-24T08:54:19;97448.03;;;23.77;67.01
65897;BME280;52677;50.898;10.854;2023-07-24T08:56:19;97448.94;;;23.68;65.96
65897;BME280;52677;50.898;10.854;2023-07-24T08:58:20;97458.59;;;23.62;67.52
65897;BME280;52677;50.898;10.854;2023-07-24T09:00:20;97452.53;;;23.69;66.03
65897;BME280;52677;50.898;10.854;2023-07-24T09:02:20;97449.31;;;23.96;66.24
65897;BME280;52677;50.898;10.854;2023-07-24T09:04:21;97455.63;;;24.26;66.44
65897;BME280;52677;50.898;10.854;2023-07-24T09:06:21;97448.69;;;24.48;64.46
65897;BME280;52677;50.898;10.854;2023-07-24T09:08:31;97446.44;;;24.52;63.70
65897;BME280;52677;50.898;10.854;2023-07-24T09:10:32;97457.75;;;24.52;63.72
65897;BME280;52677;50.898;10.854;2023-07-24T09:12:32;97456.66;;;24.49;63.91
65897;BME280;52677;50.898;10.854;2023-07-24T09:14:33;97447.38;;;24.43;64.27
65897;BME280;52677;50.898;10.854;2023-07-24T09:16:33;97444.81;;;24.45;65.29
65897;BME280;52677;50.898;10.854;2023-07-24T09:18:40;97443.81;;;24.48;64.30
65897;BME280;52677;50.898;10.854;2023-07-24T09:20:42;97441.66;;;24.63;64.44
65897;BME280;52677;50.898;10.854;2023-07-24T09:22:53;97434.88;;;24.76;63.14
65897;BME280;52677;50.898;10.854;2023-07-24T09:24:55;97431.03;;;24.79;62.98
65897;BME280;52677;50.898;10.854;2023-07-24T09:26:55;97437.53;;;24.85;62.99
65897;BME280;52677;50.898;10.854;2023-07-24T09:28:56;97427.69;;;24.80;62.94
65897;BME280;52677;50.898;10.854;2023-07-24T09:30:58;97429.56;;;24.89;62.70
65897;BME280;52677;50.898;10.854;2023-07-24T09:33:00;97420.69;;;25.02;62.55
65897;BME280;52677;50.898;10.854;2023-07-24T09:35:01;97414.06;;;25.05;62.05
65897;BME280;52677;50.898;10.854;2023-07-24T09:37:01;97411.81;;;25.14;62.50
65897;BME280;52677;50.898;10.854;2023-07-24T09:39:01;97418.38;;;25.32;62.72
65897;BME280;52677;50.898;10.854;2023-07-24T09:41:06;97417.72;;;25.42;60.65
65897;BME280;52677;50.898;10.854;2023-07-24T09:43:27;97406.19;;;25.52;62.21
65897;BME280;52677;50.898;10.854;2023-07-24T09:45:28;97387.41;;;25.54;62.14
65897;BME280;52677;50.898;10.854;2023-07-24T09:47:29;97396.50;;;25.69;63.38
65897;BME280;52677;50.898;10.854;2023-07-24T09:49:30;97394.25;;;25.73;62.36
65897;BME280;52677;50.898;10.854;2023-07-24T09:51:30;97378.28;;;25.76;63.38
65897;BME280;52677;50.898;10.854;2023-07-24T09:53:33;97359.38;;;25.62;62.33
65897;BME280;52677;50.898;10.854;2023-07-24T09:55:46;97379.41;;;25.53;62.28
65897;BME280;52677;50.898;10.854;2023-07-24T09:57:48;97366.00;;;25.47;62.33
65897;BME280;52677;50.898;10.854;2023-07-24T09:59:51;97368.56;;;25.45;63.43
65897;BME280;52677;50.898;10.854;2023-07-24T10:01:54;97374.78;;;25.55;62.44
65897;BME280;52677;50.898;10.854;2023-07-24T10:03:55;97355.25;;;25.57;63.23
65897;BME280;52677;50.898;10.854;2023-07-24T10:05:55;97368.66;;;25.62;63.55
65897;BME280;52677;50.898;10.854;2023-07-24T10:07:56;97346.81;;;25.68;62.03
65897;BME280;52677;50.898;10.854;2023-07-24T10:09:56;97350.69;;;25.71;62.36
65897;BME280;52677;50.898;10.854;2023-07-24T10:11:57;97324.47;;;25.76;61.31
65897;BME280;52677;50.898;10.854;2023-07-24T10:13:58;97331.69;;;25.77;61.87
65897;BME280;52677;50.898;10.854;2023-07-24T10:15:58;97322.94;;;25.81;62.13
65897;BME280;52677;50.898;10.854;2023-07-24T10:18:07;97314.19;;;25.90;61.38
65897;BME280;52677;50.898;10.854;2023-07-24T10:20:09;97310.63;;;25.95;61.86
65897;BME280;52677;50.898;10.854;2023-07-24T10:22:20;97303.97;;;26.09;62.66
65897;BME280;52677;50.898;10.854;2023-07-24T10:24:29;97305.28;;;26.30;61.68
65897;BME280;52677;50.898;10.854;2023-07-24T10:26:29;97299.69;;;26.47;62.19
65897;BME280;52677;50.898;10.854;2023-07-24T10:28:35;97310.00;;;26.73;60.67
65897;BME280;52677;50.898;10.854;2023-07-24T10:30:40;97307.44;;;26.80;59.84
65897;BME280;52677;50.898;10.854;2023-07-24T10:32:48;97293.50;;;26.77;58.74
65897;BME280;52677;50.898;10.854;2023-07-24T10:34:59;97311.81;;;26.76;59.31
65897;BME280;52677;50.898;10.854;2023-07-24T10:37:03;97300.47;;;26.70;58.66
65897;BME280;52677;50.898;10.854;2023-07-24T10:39:16;97298.16;;;26.69;59.10
65897;BME280;52677;50.898;10.854;2023-07-24T10:41:19;97291.97;;;26.76;58.36
65897;BME280;52677;50.898;10.854;2023-07-24T10:43:20;97293.00;;;26.78;58.74
65897;BME280;52677;50.898;10.854;2023-07-24T10:45:24;97299.97;;;26.83;59.91
65897;BME280;52677;50.898;10.854;2023-07-24T10:47:25;97293.25;;;26.58;60.84